Beila, Mauritania
Current Conditions -  °F | °C
As of 2:00 AM on Sunday 23 Nov 2014 (Local Time) from GQNN Reporting Station
Clear Clear  
Wind Chill: 68°   Ceiling: Unl
Heat Index: 68°   Visibility: 5mi
Dew Point: 59°   Wind: 6mph
Humidity: 73%   Direction: 30°NNE
Pressure: 29.97"   Gusts: NA
Location:  18.17°N, 15.87°W
Report Text: GQNN 230200Z 03005KT 8000 NSC 20/15 Q1015 NOSIG
Loading
Personal Weather Stations






























Interactive Weather Map New forecast layout! Learn more

10-Day Weather Forecast

Advertisements
Track Severe Weather on mobile